sensor_id;sensor_type;location;lat;lon;timestamp;temperature;humidity
64111;DHT22;50401;48.188;11.566;2023-07-31T00:02:21;19.72;61.22
64111;DHT22;50401;48.188;11.566;2023-07-31T00:04:47;19.61;61.84
64111;DHT22;50401;48.188;11.566;2023-07-31T00:07:14;19.51;62.27
64111;DHT22;50401;48.188;11.566;2023-07-31T00:09:39;19.52;62.57
64111;DHT22;50401;48.188;11.566;2023-07-31T00:12:05;19.49;62.66
64111;DHT22;50401;48.188;11.566;2023-07-31T00:14:30;19.51;62.63
64111;DHT22;50401;48.188;11.566;2023-07-31T00:16:56;19.38;62.69
64111;DHT22;50401;48.188;11.566;2023-07-31T00:19:21;19.30;63.15
64111;DHT22;50401;48.188;11.566;2023-07-31T00:21:47;19.44;63.32
64111;DHT22;50401;48.188;11.566;2023-07-31T00:24:12;19.52;63.03
64111;DHT22;50401;48.188;11.566;2023-07-31T00:26:38;19.63;62.95
64111;DHT22;50401;48.188;11.566;2023-07-31T00:29:03;19.48;63.16
64111;DHT22;50401;48.188;11.566;2023-07-31T00:31:28;19.55;63.00
64111;DHT22;50401;48.188;11.566;2023-07-31T00:33:54;19.51;63.13
64111;DHT22;50401;48.188;11.566;2023-07-31T00:36:19;19.42;63.41
64111;DHT22;50401;48.188;11.566;2023-07-31T00:38:45;19.45;63.52
64111;DHT22;50401;48.188;11.566;2023-07-31T00:41:10;19.45;63.55
64111;DHT22;50401;48.188;11.566;2023-07-31T00:43:36;19.34;64.03
64111;DHT22;50401;48.188;11.566;2023-07-31T00:46:01;19.24;64.26
64111;DHT22;50401;48.188;11.566;2023-07-31T00:48:27;19.18;64.27
64111;DHT22;50401;48.188;11.566;2023-07-31T00:50:53;19.17;64.51
64111;DHT22;50401;48.188;11.566;2023-07-31T00:53:19;19.24;64.46
64111;DHT22;50401;48.188;11.566;2023-07-31T00:55:44;19.24;64.45
64111;DHT22;50401;48.188;11.566;2023-07-31T00:58:10;19.17;64.54
64111;DHT22;50401;48.188;11.566;2023-07-31T01:00:36;19.25;64.26
64111;DHT22;50401;48.188;11.566;2023-07-31T01:03:01;19.32;64.19
64111;DHT22;50401;48.188;11.566;2023-07-31T01:05:42;19.25;64.33
64111;DHT22;50401;48.188;11.566;2023-07-31T01:08:18;18.97;64.61
64111;DHT22;50401;48.188;11.566;2023-07-31T01:10:56;19.06;64.23
64111;DHT22;50401;48.188;11.566;2023-07-31T01:13:25;19.08;64.03
64111;DHT22;50401;48.188;11.566;2023-07-31T01:15:51;19.06;63.13
64111;DHT22;50401;48.188;11.566;2023-07-31T01:18:17;19.21;63.09
64111;DHT22;50401;48.188;11.566;2023-07-31T01:20:42;19.34;63.21
64111;DHT22;50401;48.188;11.566;2023-07-31T01:29:00;19.24;62.78
64111;DHT22;50401;48.188;11.566;2023-07-31T01:31:29;19.25;62.93
64111;DHT22;50401;48.188;11.566;2023-07-31T01:33:58;19.10;63.10
64111;DHT22;50401;48.188;11.566;2023-07-31T01:36:25;18.96;63.71
64111;DHT22;50401;48.188;11.566;2023-07-31T01:38:50;19.02;63.75
64111;DHT22;50401;48.188;11.566;2023-07-31T01:41:19;19.10;63.54
64111;DHT22;50401;48.188;11.566;2023-07-31T01:43:46;19.21;63.34
64111;DHT22;50401;48.188;11.566;2023-07-31T01:46:11;19.30;63.20
64111;DHT22;50401;48.188;11.566;2023-07-31T01:48:37;19.42;62.49
64111;DHT22;50401;48.188;11.566;2023-07-31T01:51:02;19.39;62.16
64111;DHT22;50401;48.188;11.566;2023-07-31T01:53:29;19.22;62.62
64111;DHT22;50401;48.188;11.566;2023-07-31T01:55:55;19.20;62.98
64111;DHT22;50401;48.188;11.566;2023-07-31T01:58:20;19.20;63.09
64111;DHT22;50401;48.188;11.566;2023-07-31T02:00:46;19.20;63.37
64111;DHT22;50401;48.188;11.566;2023-07-31T02:03:11;19.20;63.08
64111;DHT22;50401;48.188;11.566;2023-07-31T02:05:44;19.18;63.14
64111;DHT22;50401;48.188;11.566;2023-07-31T02:08:09;19.21;63.07
64111;DHT22;50401;48.188;11.566;2023-07-31T02:10:34;19.27;63.18
64111;DHT22;50401;48.188;11.566;2023-07-31T02:13:00;19.30;63.09
64111;DHT22;50401;48.188;11.566;2023-07-31T02:15:25;19.25;63.43
64111;DHT22;50401;48.188;11.566;2023-07-31T02:17:51;19.14;63.49
64111;DHT22;50401;48.188;11.566;2023-07-31T02:20:16;19.11;63.53
64111;DHT22;50401;48.188;11.566;2023-07-31T02:22:42;19.13;63.93
64111;DHT22;50401;48.188;11.566;2023-07-31T02:25:08;19.15;63.75
64111;DHT22;50401;48.188;11.566;2023-07-31T02:27:33;19.22;64.01
64111;DHT22;50401;48.188;11.566;2023-07-31T02:29:59;19.27;64.04
64111;DHT22;50401;48.188;11.566;2023-07-31T02:32:24;19.28;63.59
64111;DHT22;50401;48.188;11.566;2023-07-31T02:34:50;19.24;63.74
64111;DHT22;50401;48.188;11.566;2023-07-31T02:37:15;19.15;63.92
64111;DHT22;50401;48.188;11.566;2023-07-31T02:39:41;19.04;64.28
64111;DHT22;50401;48.188;11.566;2023-07-31T02:42:06;19.04;64.28
64111;DHT22;50401;48.188;11.566;2023-07-31T02:44:31;19.02;64.17
64111;DHT22;50401;48.188;11.566;2023-07-31T02:46:57;19.07;64.35
64111;DHT22;50401;48.188;11.566;2023-07-31T02:49:22;19.15;64.04
64111;DHT22;50401;48.188;11.566;2023-07-31T02:51:48;19.20;63.92
64111;DHT22;50401;48.188;11.566;2023-07-31T02:54:13;19.10;64.17
64111;DHT22;50401;48.188;11.566;2023-07-31T02:56:39;19.07;64.28
64111;DHT22;50401;48.188;11.566;2023-07-31T02:59:04;19.07;64.57
64111;DHT22;50401;48.188;11.566;2023-07-31T03:01:30;19.13;64.82
64111;DHT22;50401;48.188;11.566;2023-07-31T03:03:56;19.15;64.90
64111;DHT22;50401;48.188;11.566;2023-07-31T03:06:21;19.25;64.79
64111;DHT22;50401;48.188;11.566;2023-07-31T03:08:47;19.32;64.85
64111;DHT22;50401;48.188;11.566;2023-07-31T03:11:12;19.25;64.86
64111;DHT22;50401;48.188;11.566;2023-07-31T03:13:38;19.27;64.84
64111;DHT22;50401;48.188;11.566;2023-07-31T03:16:03;19.25;65.17
64111;DHT22;50401;48.188;11.566;2023-07-31T03:18:29;19.27;65.55
64111;DHT22;50401;48.188;11.566;2023-07-31T03:20:54;19.20;65.32
64111;DHT22;50401;48.188;11.566;2023-07-31T03:23:20;19.24;65.15
64111;DHT22;50401;48.188;11.566;2023-07-31T03:26:01;19.24;65.51
64111;DHT22;50401;48.188;11.566;2023-07-31T03:28:29;19.22;65.49
64111;DHT22;50401;48.188;11.566;2023-07-31T03:30:55;19.22;65.65
64111;DHT22;50401;48.188;11.566;2023-07-31T03:33:21;19.18;65.78
64111;DHT22;50401;48.188;11.566;2023-07-31T03:35:46;19.20;65.75
64111;DHT22;50401;48.188;11.566;2023-07-31T03:38:11;19.20;65.85
64111;DHT22;50401;48.188;11.566;2023-07-31T03:40:37;19.18;65.98
64111;DHT22;50401;48.188;11.566;2023-07-31T03:43:02;19.17;66.30
64111;DHT22;50401;48.188;11.566;2023-07-31T03:45:28;19.18;66.46
64111;DHT22;50401;48.188;11.566;2023-07-31T03:47:53;19.20;66.61
64111;DHT22;50401;48.188;11.566;2023-07-31T03:50:20;19.13;66.78
64111;DHT22;50401;48.188;11.566;2023-07-31T03:52:46;19.07;67.43
64111;DHT22;50401;48.188;11.566;2023-07-31T03:55:11;19.08;67.55
64111;DHT22;50401;48.188;11.566;2023-07-31T03:57:36;19.17;67.66
64111;DHT22;50401;48.188;11.566;2023-07-31T04:00:02;19.21;67.60
64111;DHT22;50401;48.188;11.566;2023-07-31T04:02:29;19.34;67.46
64111;DHT22;50401;48.188;11.566;2023-07-31T04:04:54;19.27;67.88
64111;DHT22;50401;48.188;11.566;2023-07-31T04:07:19;19.24;68.18
64111;DHT22;50401;48.188;11.566;2023-07-31T04:09:45;19.30;67.99
64111;DHT22;50401;48.188;11.566;2023-07-31T04:12:10;19.28;67.99
64111;DHT22;50401;48.188;11.566;2023-07-31T04:14:36;19.31;67.98
64111;DHT22;50401;48.188;11.566;2023-07-31T04:17:02;19.31;68.03
64111;DHT22;50401;48.188;11.566;2023-07-31T04:19:27;19.30;67.83
64111;DHT22;50401;48.188;11.566;2023-07-31T04:21:52;19.32;67.88
64111;DHT22;50401;48.188;11.566;2023-07-31T04:24:18;19.35;67.88
64111;DHT22;50401;48.188;11.566;2023-07-31T04:26:52;19.34;67.85
64111;DHT22;50401;48.188;11.566;2023-07-31T04:29:18;19.31;68.15
64111;DHT22;50401;48.188;11.566;2023-07-31T04:31:43;19.31;68.26
64111;DHT22;50401;48.188;11.566;2023-07-31T04:34:09;19.38;68.22
64111;DHT22;50401;48.188;11.566;2023-07-31T04:36:35;19.47;67.99
64111;DHT22;50401;48.188;11.566;2023-07-31T04:39:01;19.51;68.00
64111;DHT22;50401;48.188;11.566;2023-07-31T04:41:26;19.51;68.04
64111;DHT22;50401;48.188;11.566;2023-07-31T04:43:52;19.52;68.05
64111;DHT22;50401;48.188;11.566;2023-07-31T04:46:17;19.56;68.20
64111;DHT22;50401;48.188;11.566;2023-07-31T04:48:43;19.61;68.23
64111;DHT22;50401;48.188;11.566;2023-07-31T04:51:08;19.63;68.15
64111;DHT22;50401;48.188;11.566;2023-07-31T04:53:35;19.66;68.19
64111;DHT22;50401;48.188;11.566;2023-07-31T04:56:00;19.67;68.10
64111;DHT22;50401;48.188;11.566;2023-07-31T04:58:26;19.61;68.29
64111;DHT22;50401;48.188;11.566;2023-07-31T05:00:51;19.73;68.15
64111;DHT22;50401;48.188;11.566;2023-07-31T05:03:17;19.87;67.93
64111;DHT22;50401;48.188;11.566;2023-07-31T05:05:42;19.84;68.09
64111;DHT22;50401;48.188;11.566;2023-07-31T05:08:08;19.79;67.93
64111;DHT22;50401;48.188;11.566;2023-07-31T05:10:33;19.65;68.47
64111;DHT22;50401;48.188;11.566;2023-07-31T05:12:59;19.76;68.02
64111;DHT22;50401;48.188;11.566;2023-07-31T05:15:25;19.89;67.84
64111;DHT22;50401;48.188;11.566;2023-07-31T05:17:50;20.10;67.48
64111;DHT22;50401;48.188;11.566;2023-07-31T05:20:16;20.76;66.03
64111;DHT22;50401;48.188;11.566;2023-07-31T05:22:41;21.50;63.17
64111;DHT22;50401;48.188;11.566;2023-07-31T05:25:07;22.28;61.45
64111;DHT22;50401;48.188;11.566;2023-07-31T05:27:33;22.49;60.54
64111;DHT22;50401;48.188;11.566;2023-07-31T05:29:58;23.05;59.11
64111;DHT22;50401;48.188;11.566;2023-07-31T05:32:24;23.32;58.19
64111;DHT22;50401;48.188;11.566;2023-07-31T05:34:52;23.61;56.85
64111;DHT22;50401;48.188;11.566;2023-07-31T05:37:18;23.89;56.14
64111;DHT22;50401;48.188;11.566;2023-07-31T05:39:44;24.22;55.14
64111;DHT22;50401;48.188;11.566;2023-07-31T05:42:10;24.57;54.32
64111;DHT22;50401;48.188;11.566;2023-07-31T05:44:35;24.61;53.83
64111;DHT22;50401;48.188;11.566;2023-07-31T05:47:01;24.22;54.49
64111;DHT22;50401;48.188;11.566;2023-07-31T05:49:26;23.75;55.35
64111;DHT22;50401;48.188;11.566;2023-07-31T05:51:52;23.57;55.96
64111;DHT22;50401;48.188;11.566;2023-07-31T05:54:17;22.99;56.66
64111;DHT22;50401;48.188;11.566;2023-07-31T05:56:43;22.95;56.89
64111;DHT22;50401;48.188;11.566;2023-07-31T05:59:09;22.61;57.95
64111;DHT22;50401;48.188;11.566;2023-07-31T06:01:35;22.77;57.83
64111;DHT22;50401;48.188;11.566;2023-07-31T06:04:01;23.08;57.04
64111;DHT22;50401;48.188;11.566;2023-07-31T06:06:28;23.12;56.57
64111;DHT22;50401;48.188;11.566;2023-07-31T06:08:53;22.88;57.54
64111;DHT22;50401;48.188;11.566;2023-07-31T06:11:20;22.83;57.62
64111;DHT22;50401;48.188;11.566;2023-07-31T06:13:45;22.84;57.97
64111;DHT22;50401;48.188;11.566;2023-07-31T06:16:13;22.83;57.90
64111;DHT22;50401;48.188;11.566;2023-07-31T06:18:39;22.84;57.61
64111;DHT22;50401;48.188;11.566;2023-07-31T06:21:04;22.72;58.01
64111;DHT22;50401;48.188;11.566;2023-07-31T06:23:30;22.64;57.54
64111;DHT22;50401;48.188;11.566;2023-07-31T06:25:56;22.54;58.27
64111;DHT22;50401;48.188;11.566;2023-07-31T06:28:27;22.28;58.81
64111;DHT22;50401;48.188;11.566;2023-07-31T06:30:53;22.32;58.76
64111;DHT22;50401;48.188;11.566;2023-07-31T06:33:18;22.16;58.67
64111;DHT22;50401;48.188;11.566;2023-07-31T06:35:44;22.04;59.35
64111;DHT22;50401;48.188;11.566;2023-07-31T06:38:10;22.12;58.44
64111;DHT22;50401;48.188;11.566;2023-07-31T06:40:37;22.36;57.79
64111;DHT22;50401;48.188;11.566;2023-07-31T06:43:03;22.59;57.52
64111;DHT22;50401;48.188;11.566;2023-07-31T06:45:34;22.92;57.08
64111;DHT22;50401;48.188;11.566;2023-07-31T06:48:02;23.05;56.39
64111;DHT22;50401;48.188;11.566;2023-07-31T06:50:32;23.27;55.98
64111;DHT22;50401;48.188;11.566;2023-07-31T06:52:57;23.42;55.55
64111;DHT22;50401;48.188;11.566;2023-07-31T06:55:23;23.46;55.34
64111;DHT22;50401;48.188;11.566;2023-07-31T06:57:50;23.29;55.64
64111;DHT22;50401;48.188;11.566;2023-07-31T07:00:17;23.19;55.61
64111;DHT22;50401;48.188;11.566;2023-07-31T07:02:43;23.12;55.85
64111;DHT22;50401;48.188;11.566;2023-07-31T07:05:09;22.92;56.13
64111;DHT22;50401;48.188;11.566;2023-07-31T07:07:35;22.91;57.64
64111;DHT22;50401;48.188;11.566;2023-07-31T07:10:01;22.88;57.29
64111;DHT22;50401;48.188;11.566;2023-07-31T07:12:31;22.90;56.69
64111;DHT22;50401;48.188;11.566;2023-07-31T07:14:57;22.90;56.50
64111;DHT22;50401;48.188;11.566;2023-07-31T07:17:27;23.09;56.09
64111;DHT22;50401;48.188;11.566;2023-07-31T07:19:53;23.19;56.04
64111;DHT22;50401;48.188;11.566;2023-07-31T07:22:18;23.42;55.63
64111;DHT22;50401;48.188;11.566;2023-07-31T07:24:44;23.81;54.74
64111;DHT22;50401;48.188;11.566;2023-07-31T07:27:09;24.17;53.66
64111;DHT22;50401;48.188;11.566;2023-07-31T07:29:35;24.24;54.10
64111;DHT22;50401;48.188;11.566;2023-07-31T07:32:01;24.29;53.45
64111;DHT22;50401;48.188;11.566;2023-07-31T07:34:27;24.43;53.64
64111;DHT22;50401;48.188;11.566;2023-07-31T07:36:54;24.50;53.35
64111;DHT22;50401;48.188;11.566;2023-07-31T07:39:19;24.71;53.18
64111;DHT22;50401;48.188;11.566;2023-07-31T07:41:45;25.33;51.80
64111;DHT22;50401;48.188;11.566;2023-07-31T07:44:11;25.72;50.58
64111;DHT22;50401;48.188;11.566;2023-07-31T07:46:36;26.23;48.35
64111;DHT22;50401;48.188;11.566;2023-07-31T07:49:02;25.44;50.19
64111;DHT22;50401;48.188;11.566;2023-07-31T07:51:27;27.11;47.73
64111;DHT22;50401;48.188;11.566;2023-07-31T07:53:55;26.52;48.29
64111;DHT22;50401;48.188;11.566;2023-07-31T07:56:21;26.17;49.13
64111;DHT22;50401;48.188;11.566;2023-07-31T07:58:50;25.84;49.33
64111;DHT22;50401;48.188;11.566;2023-07-31T08:01:15;25.82;49.60
64111;DHT22;50401;48.188;11.566;2023-07-31T08:03:41;25.99;49.17
64111;DHT22;50401;48.188;11.566;2023-07-31T08:06:06;26.55;48.64
64111;DHT22;50401;48.188;11.566;2023-07-31T08:08:34;26.56;48.61
64111;DHT22;50401;48.188;11.566;2023-07-31T08:10:59;27.24;46.32
64111;DHT22;50401;48.188;11.566;2023-07-31T08:13:25;28.73;44.02
64111;DHT22;50401;48.188;11.566;2023-07-31T08:15:50;30.56;40.32
64111;DHT22;50401;48.188;11.566;2023-07-31T08:18:16;30.86;38.78
64111;DHT22;50401;48.188;11.566;2023-07-31T08:20:42;31.78;38.06
64111;DHT22;50401;48.188;11.566;2023-07-31T08:23:08;32.29;37.69
64111;DHT22;50401;48.188;11.566;2023-07-31T08:25:35;31.25;38.97
64111;DHT22;50401;48.188;11.566;2023-07-31T08:28:01;30.01;40.57
64111;DHT22;50401;48.188;11.566;2023-07-31T08:30:27;29.53;41.48
64111;DHT22;50401;48.188;11.566;2023-07-31T08:32:52;28.25;43.76
64111;DHT22;50401;48.188;11.566;2023-07-31T08:35:18;27.28;45.16
64111;DHT22;50401;48.188;11.566;2023-07-31T08:37:44;26.63;45.87
64111;DHT22;50401;48.188;11.566;2023-07-31T08:40:09;26.00;45.58
64111;DHT22;50401;48.188;11.566;2023-07-31T08:42:46;25.48;47.27
64111;DHT22;50401;48.188;11.566;2023-07-31T08:45:16;25.12;47.94
64111;DHT22;50401;48.188;11.566;2023-07-31T08:47:46;24.82;48.36
64111;DHT22;50401;48.188;11.566;2023-07-31T08:50:13;24.63;48.81
64111;DHT22;50401;48.188;11.566;2023-07-31T08:52:39;24.41;49.50
64111;DHT22;50401;48.188;11.566;2023-07-31T08:55:08;24.26;49.76
64111;DHT22;50401;48.188;11.566;2023-07-31T08:57:36;23.91;50.84
64111;DHT22;50401;48.188;11.566;2023-07-31T09:00:06;23.63;51.59
64111;DHT22;50401;48.188;11.566;2023-07-31T09:02:56;23.45;52.69
64111;DHT22;50401;48.188;11.566;2023-07-31T09:05:23;23.49;53.12
64111;DHT22;50401;48.188;11.566;2023-07-31T09:07:49;23.39;53.14
64111;DHT22;50401;48.188;11.566;2023-07-31T09:10:15;23.63;53.06
64111;DHT22;50401;48.188;11.566;2023-07-31T09:12:41;24.05;52.33
64111;DHT22;50401;48.188;11.566;2023-07-31T09:15:07;24.76;50.61
64111;DHT22;50401;48.188;11.566;2023-07-31T09:17:35;24.95;50.48
64111;DHT22;50401;48.188;11.566;2023-07-31T09:20:16;24.65;50.84
64111;DHT22;50401;48.188;11.566;2023-07-31T09:22:42;24.81;50.83
64111;DHT22;50401;48.188;11.566;2023-07-31T09:25:19;25.13;49.74
64111;DHT22;50401;48.188;11.566;2023-07-31T09:27:58;24.81;50.02
64111;DHT22;50401;48.188;11.566;2023-07-31T09:30:24;24.54;50.25
64111;DHT22;50401;48.188;11.566;2023-07-31T09:32:50;24.81;50.15
64111;DHT22;50401;48.188;11.566;2023-07-31T09:35:30;25.13;49.33
64111;DHT22;50401;48.188;11.566;2023-07-31T09:38:11;25.58;48.22
64111;DHT22;50401;48.188;11.566;2023-07-31T09:40:41;25.90;47.07
64111;DHT22;50401;48.188;11.566;2023-07-31T09:43:09;26.00;47.11
64111;DHT22;50401;48.188;11.566;2023-07-31T09:45:37;26.33;46.58
64111;DHT22;50401;48.188;11.566;2023-07-31T09:48:03;26.62;46.05
64111;DHT22;50401;48.188;11.566;2023-07-31T09:50:29;27.02;45.48
64111;DHT22;50401;48.188;11.566;2023-07-31T09:52:55;27.67;43.90
64111;DHT22;50401;48.188;11.566;2023-07-31T09:55:20;28.15;42.78
64111;DHT22;50401;48.188;11.566;2023-07-31T09:57:47;28.11;42.83
64111;DHT22;50401;48.188;11.566;2023-07-31T10:00:15;28.20;42.49
64111;DHT22;50401;48.188;11.566;2023-07-31T10:02:45;27.99;42.87
64111;DHT22;50401;48.188;11.566;2023-07-31T10:05:13;27.54;43.38
64111;DHT22;50401;48.188;11.566;2023-07-31T10:07:42;27.18;44.02
64111;DHT22;50401;48.188;11.566;2023-07-31T10:10:11;26.89;44.28
64111;DHT22;50401;48.188;11.566;2023-07-31T10:12:37;25.93;45.99
64111;DHT22;50401;48.188;11.566;2023-07-31T10:15:03;26.26;45.49
64111;DHT22;50401;48.188;11.566;2023-07-31T10:17:30;26.40;46.03
64111;DHT22;50401;48.188;11.566;2023-07-31T10:19:58;26.44;46.19
64111;DHT22;50401;48.188;11.566;2023-07-31T10:22:29;26.65;45.10
64111;DHT22;50401;48.188;11.566;2023-07-31T10:24:57;26.49;45.48
64111;DHT22;50401;48.188;11.566;2023-07-31T10:27:23;26.52;45.41
64111;DHT22;50401;48.188;11.566;2023-07-31T10:29:50;26.65;45.72
64111;DHT22;50401;48.188;11.566;2023-07-31T10:32:17;26.73;45.30
64111;DHT22;50401;48.188;11.566;2023-07-31T10:34:43;26.83;44.76
64111;DHT22;50401;48.188;11.566;2023-07-31T10:37:25;26.40;44.80
64111;DHT22;50401;48.188;11.566;2023-07-31T10:40:04;26.20;45.20
64111;DHT22;50401;48.188;11.566;2023-07-31T10:42:33;26.20;45.38
64111;DHT22;50401;48.188;11.566;2023-07-31T10:45:02;26.10;45.26
64111;DHT22;50401;48.188;11.566;2023-07-31T10:47:27;26.12;45.47
64111;DHT22;50401;48.188;11.566;2023-07-31T10:50:11;26.07;45.63
64111;DHT22;50401;48.188;11.566;2023-07-31T10:52:36;26.06;46.07
64111;DHT22;50401;48.188;11.566;2023-07-31T10:57:49;26.07;44.90
64111;DHT22;50401;48.188;11.566;2023-07-31T11:02:57;26.04;45.72
64111;DHT22;50401;48.188;11.566;2023-07-31T11:08:22;25.93;45.58
64111;DHT22;50401;48.188;11.566;2023-07-31T11:10:50;25.93;46.78
64111;DHT22;50401;48.188;11.566;2023-07-31T11:13:16;25.86;46.51
64111;DHT22;50401;48.188;11.566;2023-07-31T11:15:41;25.85;46.49
64111;DHT22;50401;48.188;11.566;2023-07-31T11:18:07;25.62;45.89
64111;DHT22;50401;48.188;11.566;2023-07-31T11:20:35;25.19;46.43
64111;DHT22;50401;48.188;11.566;2023-07-31T11:23:07;25.06;47.50
64111;DHT22;50401;48.188;11.566;2023-07-31T11:25:33;25.23;47.93
64111;DHT22;50401;48.188;11.566;2023-07-31T11:28:04;25.50;47.02
64111;DHT22;50401;48.188;11.566;2023-07-31T11:30:30;25.57;47.06
64111;DHT22;50401;48.188;11.566;2023-07-31T11:32:56;25.72;46.95
64111;DHT22;50401;48.188;11.566;2023-07-31T11:35:21;25.85;47.32
64111;DHT22;50401;48.188;11.566;2023-07-31T11:37:47;25.76;45.23
64111;DHT22;50401;48.188;11.566;2023-07-31T11:40:14;25.72;45.48
64111;DHT22;50401;48.188;11.566;2023-07-31T11:42:39;25.78;45.89
64111;DHT22;50401;48.188;11.566;2023-07-31T11:45:07;25.84;45.45
64111;DHT22;50401;48.188;11.566;2023-07-31T11:47:33;25.71;45.40
64111;DHT22;50401;48.188;11.566;2023-07-31T11:50:00;25.72;46.09
64111;DHT22;50401;48.188;11.566;2023-07-31T11:52:28;25.82;46.66
64111;DHT22;50401;48.188;11.566;2023-07-31T11:54:54;25.65;45.47
64111;DHT22;50401;48.188;11.566;2023-07-31T11:57:20;25.75;45.83
64111;DHT22;50401;48.188;11.566;2023-07-31T11:59:46;25.45;46.17
64111;DHT22;50401;48.188;11.566;2023-07-31T12:02:11;25.47;47.24
64111;DHT22;50401;48.188;11.566;2023-07-31T12:04:37;25.60;47.11
64111;DHT22;50401;48.188;11.566;2023-07-31T12:07:03;25.37;46.46
64111;DHT22;50401;48.188;11.566;2023-07-31T12:09:29;25.47;47.15
64111;DHT22;50401;48.188;11.566;2023-07-31T12:11:54;25.51;47.10
64111;DHT22;50401;48.188;11.566;2023-07-31T12:14:29;25.57;47.01
64111;DHT22;50401;48.188;11.566;2023-07-31T12:16:56;25.62;47.00
64111;DHT22;50401;48.188;11.566;2023-07-31T12:19:22;25.57;46.53
64111;DHT22;50401;48.188;11.566;2023-07-31T12:21:48;25.61;46.91
64111;DHT22;50401;48.188;11.566;2023-07-31T12:24:14;25.65;46.61
64111;DHT22;50401;48.188;11.566;2023-07-31T12:26:39;25.72;46.47
64111;DHT22;50401;48.188;11.566;2023-07-31T12:29:07;25.76;45.95
64111;DHT22;50401;48.188;11.566;2023-07-31T12:31:35;25.84;44.51
64111;DHT22;50401;48.188;11.566;2023-07-31T12:34:01;25.72;45.28
64111;DHT22;50401;48.188;11.566;2023-07-31T12:36:28;25.81;45.64
64111;DHT22;50401;48.188;11.566;2023-07-31T12:38:55;25.93;45.40
64111;DHT22;50401;48.188;11.566;2023-07-31T12:41:23;26.04;45.10
64111;DHT22;50401;48.188;11.566;2023-07-31T12:43:48;26.06;44.09
64111;DHT22;50401;48.188;11.566;2023-07-31T12:46:13;25.99;43.42
64111;DHT22;50401;48.188;11.566;2023-07-31T12:48:40;26.13;43.96
64111;DHT22;50401;48.188;11.566;2023-07-31T12:51:05;26.26;43.99
64111;DHT22;50401;48.188;11.566;2023-07-31T12:53:32;26.31;44.15
64111;DHT22;50401;48.188;11.566;2023-07-31T12:55:58;26.17;43.91
64111;DHT22;50401;48.188;11.566;2023-07-31T12:58:24;26.21;44.30
64111;DHT22;50401;48.188;11.566;2023-07-31T13:00:49;26.26;43.90
64111;DHT22;50401;48.188;11.566;2023-07-31T13:03:15;26.34;44.26
64111;DHT22;50401;48.188;11.566;2023-07-31T13:05:40;26.33;45.14
64111;DHT22;50401;48.188;11.566;2023-07-31T13:08:06;26.41;45.32
64111;DHT22;50401;48.188;11.566;2023-07-31T13:10:31;26.52;44.49
64111;DHT22;50401;48.188;11.566;2023-07-31T13:12:57;26.43;43.84
64111;DHT22;50401;48.188;11.566;2023-07-31T13:15:22;26.47;44.81
64111;DHT22;50401;48.188;11.566;2023-07-31T13:17:48;26.47;45.01
64111;DHT22;50401;48.188;11.566;2023-07-31T13:20:13;26.45;44.91
64111;DHT22;50401;48.188;11.566;2023-07-31T13:22:39;26.52;44.84
64111;DHT22;50401;48.188;11.566;2023-07-31T13:25:05;26.47;44.94
64111;DHT22;50401;48.188;11.566;2023-07-31T13:27:31;26.31;44.88
64111;DHT22;50401;48.188;11.566;2023-07-31T13:29:56;26.30;45.55
64111;DHT22;50401;48.188;11.566;2023-07-31T13:32:22;26.48;45.87
64111;DHT22;50401;48.188;11.566;2023-07-31T13:34:48;26.47;45.69
64111;DHT22;50401;48.188;11.566;2023-07-31T13:37:14;26.43;44.53
64111;DHT22;50401;48.188;11.566;2023-07-31T13:39:40;26.31;45.29
64111;DHT22;50401;48.188;11.566;2023-07-31T13:42:07;26.19;45.15
64111;DHT22;50401;48.188;11.566;2023-07-31T13:44:36;26.14;44.97
64111;DHT22;50401;48.188;11.566;2023-07-31T13:47:02;26.14;44.88
64111;DHT22;50401;48.188;11.566;2023-07-31T13:49:28;26.04;44.85
64111;DHT22;50401;48.188;11.566;2023-07-31T13:51:54;26.03;45.33
64111;DHT22;50401;48.188;11.566;2023-07-31T13:54:20;25.97;46.23
64111;DHT22;50401;48.188;11.566;2023-07-31T13:56:45;25.81;46.29
64111;DHT22;50401;48.188;11.566;2023-07-31T13:59:11;25.76;46.19
64111;DHT22;50401;48.188;11.566;2023-07-31T14:01:37;25.61;46.39
64111;DHT22;50401;48.188;11.566;2023-07-31T14:04:02;25.57;46.84
64111;DHT22;50401;48.188;11.566;2023-07-31T14:06:28;25.58;46.76
64111;DHT22;50401;48.188;11.566;2023-07-31T14:08:53;25.57;46.87
64111;DHT22;50401;48.188;11.566;2023-07-31T14:11:21;25.60;46.80
64111;DHT22;50401;48.188;11.566;2023-07-31T14:13:47;25.68;46.51
64111;DHT22;50401;48.188;11.566;2023-07-31T14:16:12;25.81;46.22
64111;DHT22;50401;48.188;11.566;2023-07-31T14:18:37;25.85;46.30
64111;DHT22;50401;48.188;11.566;2023-07-31T14:21:03;25.90;46.57
64111;DHT22;50401;48.188;11.566;2023-07-31T14:23:28;25.90;47.44
64111;DHT22;50401;48.188;11.566;2023-07-31T14:25:53;25.62;48.06
64111;DHT22;50401;48.188;11.566;2023-07-31T14:28:19;25.50;48.33
64111;DHT22;50401;48.188;11.566;2023-07-31T14:30:44;25.52;48.36
64111;DHT22;50401;48.188;11.566;2023-07-31T14:33:09;25.72;47.76
64111;DHT22;50401;48.188;11.566;2023-07-31T14:35:35;25.74;48.28
64111;DHT22;50401;48.188;11.566;2023-07-31T14:38:01;25.86;47.80
64111;DHT22;50401;48.188;11.566;2023-07-31T14:40:26;25.85;47.91
64111;DHT22;50401;48.188;11.566;2023-07-31T14:42:52;25.92;48.18
64111;DHT22;50401;48.188;11.566;2023-07-31T14:45:18;25.81;47.81
64111;DHT22;50401;48.188;11.566;2023-07-31T14:47:43;25.82;48.13
64111;DHT22;50401;48.188;11.566;2023-07-31T14:50:09;25.96;47.68
64111;DHT22;50401;48.188;11.566;2023-07-31T14:52:34;26.00;46.77
64111;DHT22;50401;48.188;11.566;2023-07-31T14:55:00;25.96;47.30
64111;DHT22;50401;48.188;11.566;2023-07-31T14:57:25;26.09;46.46
64111;DHT22;50401;48.188;11.566;2023-07-31T14:59:51;26.02;46.96
64111;DHT22;50401;48.188;11.566;2023-07-31T15:02:16;26.02;47.01
64111;DHT22;50401;48.188;11.566;2023-07-31T15:04:41;26.12;46.44
64111;DHT22;50401;48.188;11.566;2023-07-31T15:07:07;26.09;46.63
64111;DHT22;50401;48.188;11.566;2023-07-31T15:09:32;26.21;46.64
64111;DHT22;50401;48.188;11.566;2023-07-31T15:11:58;26.16;45.95
64111;DHT22;50401;48.188;11.566;2023-07-31T15:14:24;26.14;45.47
64111;DHT22;50401;48.188;11.566;2023-07-31T15:16:50;26.06;45.19
64111;DHT22;50401;48.188;11.566;2023-07-31T15:19:16;26.14;44.90
64111;DHT22;50401;48.188;11.566;2023-07-31T15:21:41;26.06;45.27
64111;DHT22;50401;48.188;11.566;2023-07-31T15:24:07;25.99;45.85
64111;DHT22;50401;48.188;11.566;2023-07-31T15:26:32;25.97;45.98